June 5, 2001 (JST) METAR

Petropavlovsk/UHPP

2001/06/04 23:00 UTC

UHPP METAR 042300Z 15003MPS 9999 BKN030 10/03 Q1016 NOSIG RMK QFE 758 SC 07


PAFA/Fairbanks, Alaska

2001/06/04 22:53 UTC

PAFA 042253Z 26010KT 10SM FEW040 SCT070 BKN100 BKN200 17/08 A2968 RMK AO2 SLP053 T01670078


Adak, Alaska

2001/06/04 21:50 UTC

PADK 042150Z 26009KT 12SM FEW005 SCT025 BKN050 08/07 A2998 RMK VSBY LWR SW NW


Shemya, Alaska (Eareckson As)

2001/06/04 22:55 UTC

PASY 042255Z 19007KT 10SM SCT014 BKN032 05/04 A2985 RMK SLP109 8/800 9/600 WR//


Kukuliak, Alaska (Savoonga, Alaska on Saint Lawrence Is.)

2001/06/03 07:55 UTC

PASA 030755Z AUTO 27012KT M1/4SM OVC001 M01/M02 A2994 RMK AO1

Ads by TOK2